Aeroporto :
LOGIN :

Iscrizione | Disclaimer

   EN    FR    IT 

 










Sommario :    VFR   VFR Marginale   IFR   IFR Intensivo   IFR Molto Intensivo
Visibilità : 
Base nubi : 
>= 8 km
>= 3000ft
5 / 8 km
1000 / 3000 ft
1500m / 5 km
500 / 1000 ft
800 / 1500m
200 / 500 ft
< 800m
< 200 ft
Simboli :   Temporali  Nebbia  Neve Forte  Precipitazioni Forti  Vento > 20 kt
SIGMETs :   Varie  Temporali  Ghiacco  Turbolenza  Onda orograficha  Ceneri Vulcaniche






- Altitudine del aeroporto : 1106 ft


LFSO - Nancy / Ochey

ULTIMO METAR :
  • 150700Z AUTO 19002KT 3400 -RA BR BKN013/// OVC035/// ///CB 02/02 Q0996 TEMPO 2000 -RASN OVC005

METARs OBSOLETI :
  • 150630Z AUTO 21001KT 4400 -RA BR FEW013/// BKN038/// OVC044/// ///TCU 02/01 Q0996
  • 150600Z AUTO VRB02KT 4000 -RA BR SCT016/// SCT030/// OVC044/// ///TCU 02/02 Q0995
  • 150530Z AUTO 24003KT 4500 RA BR BKN015/// BKN043/// BKN049/// ///TCU 03/01 Q0995
  • 150500Z AUTO 04004KT 340V100 9999 BKN014 BKN062 OVC080 03/01 Q0994
  • 150430Z AUTO VRB02KT 9999 BKN014 BKN090 OVC100 03/01 Q0994

TAF AMD TAF LFSO
Valido dal 15 a 06 ore il 16 a 03 ore UTC


150615Z 1506/1603 VRB02KT 7000 -RA BKN015 OVC040
TEMPO 1506/1509 4000 RA BKN008
PROB30
TEMPO 1506/1509 2000 -RASN OVC005
BECMG 1509/1511 17010KT NSW BKN009
TEMPO 1509/1514 20010G20KT
BECMG 1512/1515 BKN020
BECMG 1518/1520 CAVOK



MetMap, La meteo Aeronautica in un colpo d'occhio ! - Copyright ORBIFLY Dicembre 2007 - Disclaimer

ORBIFLY MET'MAP TEAM :

Programmazione e sviluppo : Alexandra Zaïnal
Concezione e sviluppo : Baudouin d'Aumeries
Co-Programmazione e sviluppo : Marc-Olivier Méhu
Supporto tecnico e logistico : Manuel Goepfert
Aiuto per la traduzione : Arnaldo La Scala

Contatto : metmap@orbifly.com




FONTI E CREDITI :

   NOAA